createdAt,value
2017-12-03T00:00:23.881Z,94.30
2017-12-03T00:02:52.096Z,94.40
2017-12-03T00:05:19.304Z,94.70
2017-12-03T00:07:46.327Z,94.60
2017-12-03T00:10:13.261Z,94.60
2017-12-03T00:12:40.395Z,94.80
2017-12-03T00:15:07.403Z,95.00
2017-12-03T00:17:34.508Z,94.80
2017-12-03T00:20:02.295Z,94.90
2017-12-03T00:22:29.986Z,95.00
2017-12-03T00:24:57.235Z,95.00
2017-12-03T00:27:24.175Z,94.90
2017-12-03T00:29:51.396Z,94.60
2017-12-03T00:32:18.544Z,94.70
2017-12-03T00:34:45.670Z,94.70
2017-12-03T00:37:12.554Z,94.80
2017-12-03T00:39:40.362Z,94.80
2017-12-03T00:42:07.351Z,94.80
2017-12-03T00:44:35.272Z,94.90
2017-12-03T00:47:02.806Z,94.90
2017-12-03T00:49:29.900Z,94.70
2017-12-03T00:51:56.960Z,94.70
2017-12-03T00:54:24.675Z,94.70
2017-12-03T00:56:51.902Z,94.80
2017-12-03T00:59:19.056Z,94.60
2017-12-03T01:01:46.758Z,94.30
2017-12-03T01:04:13.740Z,94.30
2017-12-03T01:06:40.652Z,94.50
2017-12-03T01:09:07.692Z,94.50
2017-12-03T01:11:34.658Z,94.40
2017-12-03T01:14:01.557Z,94.20
2017-12-03T01:16:30.129Z,94.50
2017-12-03T01:18:57.348Z,94.50
2017-12-03T01:21:24.563Z,94.50
2017-12-03T01:23:51.992Z,94.50
2017-12-03T01:26:19.985Z,94.60
2017-12-03T01:28:47.653Z,94.70
2017-12-03T01:31:14.942Z,94.70
2017-12-03T01:33:42.343Z,94.60
2017-12-03T01:36:09.719Z,94.60
2017-12-03T01:38:38.113Z,94.50
2017-12-03T01:41:05.826Z,94.50
2017-12-03T01:43:33.623Z,94.30
2017-12-03T01:46:01.633Z,94.30
2017-12-03T01:48:28.934Z,94.30
2017-12-03T01:50:56.043Z,94.20
2017-12-03T01:53:23.132Z,94.30
2017-12-03T01:55:50.011Z,94.40
2017-12-03T01:58:16.952Z,94.50
2017-12-03T02:00:43.967Z,94.50
2017-12-03T02:03:11.108Z,94.60
2017-12-03T02:05:38.250Z,94.50
2017-12-03T02:08:06.280Z,94.60
2017-12-03T02:10:34.332Z,94.10
2017-12-03T02:13:02.024Z,94.20
2017-12-03T02:15:30.410Z,94.20
2017-12-03T02:17:58.219Z,94.20
2017-12-03T02:20:26.775Z,94.10
2017-12-03T02:22:54.618Z,94.10
2017-12-03T02:25:23.012Z,94.00
2017-12-03T02:27:50.593Z,94.20
2017-12-03T02:30:18.641Z,93.90
2017-12-03T02:32:46.522Z,93.80
2017-12-03T02:35:15.184Z,94.00
2017-12-03T02:37:42.399Z,94.00
2017-12-03T02:40:09.677Z,93.90
2017-12-03T02:42:37.999Z,93.90
2017-12-03T02:45:06.626Z,93.90
2017-12-03T02:47:33.565Z,93.90
2017-12-03T02:50:00.460Z,93.70
2017-12-03T02:52:28.964Z,93.30
2017-12-03T02:54:55.836Z,93.30
2017-12-03T02:57:25.026Z,93.00
2017-12-03T02:59:51.987Z,92.90
2017-12-03T03:02:21.059Z,92.50
2017-12-03T03:04:47.988Z,92.70
2017-12-03T03:07:16.884Z,92.50
2017-12-03T03:09:43.777Z,92.70
2017-12-03T03:12:11.767Z,92.80
2017-12-03T03:14:41.374Z,92.80
2017-12-03T03:17:12.722Z,92.70
2017-12-03T03:19:41.991Z,92.80
2017-12-03T03:22:11.404Z,92.90
2017-12-03T03:24:41.775Z,92.80
2017-12-03T03:27:08.668Z,92.80
2017-12-03T03:29:38.487Z,93.00
2017-12-03T03:32:05.460Z,93.00
2017-12-03T03:34:32.432Z,93.00
2017-12-03T03:36:59.431Z,92.90
2017-12-03T03:39:26.493Z,92.80
2017-12-03T03:41:53.396Z,92.70
2017-12-03T03:44:20.381Z,92.90
2017-12-03T03:46:48.132Z,92.90
2017-12-03T03:49:15.028Z,92.90
2017-12-03T03:51:42.028Z,93.00
2017-12-03T03:54:08.923Z,92.80
2017-12-03T03:56:35.911Z,92.80
2017-12-03T03:59:02.886Z,92.80
2017-12-03T04:01:30.622Z,92.70
2017-12-03T04:03:57.648Z,92.70
2017-12-03T04:06:24.592Z,92.60
2017-12-03T04:08:51.531Z,92.50
2017-12-03T04:11:18.497Z,92.40
2017-12-03T04:13:49.305Z,92.40
2017-12-03T04:16:17.251Z,92.80
2017-12-03T04:18:44.220Z,92.80
2017-12-03T04:21:11.107Z,92.30
2017-12-03T04:23:38.115Z,92.40
2017-12-03T04:26:04.990Z,91.90
2017-12-03T04:28:31.864Z,92.10
2017-12-03T04:30:59.560Z,92.40
2017-12-03T04:33:26.464Z,92.40
2017-12-03T04:35:53.420Z,92.40
2017-12-03T04:38:21.220Z,92.60
2017-12-03T04:40:48.187Z,92.60
2017-12-03T04:43:15.232Z,92.60
2017-12-03T04:45:42.263Z,92.60
2017-12-03T04:48:09.333Z,92.60
2017-12-03T04:50:36.292Z,92.70
2017-12-03T04:53:03.263Z,92.70
2017-12-03T04:55:31.030Z,92.90
2017-12-03T04:57:58.867Z,92.90
2017-12-03T05:00:25.813Z,92.80
2017-12-03T05:02:52.921Z,92.90
2017-12-03T05:05:19.964Z,92.80
2017-12-03T05:07:46.856Z,92.70
2017-12-03T05:10:13.910Z,92.50
2017-12-03T05:12:40.851Z,92.90
2017-12-03T05:15:07.884Z,93.20
2017-12-03T05:17:34.928Z,93.00
2017-12-03T05:20:01.804Z,93.00
2017-12-03T05:22:28.873Z,93.20
2017-12-03T05:24:55.839Z,93.40
2017-12-03T05:27:38.331Z,93.40
2017-12-03T05:30:06.119Z,93.40
2017-12-03T05:32:33.139Z,93.20
2017-12-03T05:35:00.230Z,93.10
2017-12-03T05:37:27.231Z,93.10
2017-12-03T05:39:54.181Z,93.00
2017-12-03T05:42:21.196Z,92.90
2017-12-03T05:44:48.146Z,92.80
2017-12-03T05:47:15.097Z,92.70
2017-12-03T05:49:42.745Z,92.60
2017-12-03T05:52:09.823Z,92.50
2017-12-03T05:54:38.139Z,92.50
2017-12-03T05:57:05.090Z,92.20
2017-12-03T05:59:33.483Z,92.00
2017-12-03T06:02:00.424Z,91.90
2017-12-03T06:04:28.676Z,91.90
2017-12-03T06:06:57.865Z,91.50
2017-12-03T06:09:24.851Z,91.40
2017-12-03T06:11:53.298Z,91.60
2017-12-03T06:14:22.437Z,91.80
2017-12-03T06:16:49.550Z,91.60
2017-12-03T06:19:18.252Z,91.90
2017-12-03T06:21:48.272Z,91.60
2017-12-03T06:24:16.031Z,91.50
2017-12-03T06:26:43.799Z,91.00
2017-12-03T06:29:11.489Z,91.00
2017-12-03T06:31:41.982Z,91.10
2017-12-03T06:34:09.757Z,91.10
2017-12-03T06:36:37.497Z,90.80
2017-12-03T06:39:04.517Z,90.80
2017-12-03T06:41:33.700Z,90.90
2017-12-03T06:44:01.385Z,90.60
2017-12-03T06:46:28.392Z,90.60
2017-12-03T06:48:55.390Z,90.70
2017-12-03T06:51:28.712Z,90.80
2017-12-03T06:53:56.984Z,90.80
2017-12-03T06:56:27.714Z,90.70
2017-12-03T06:59:01.765Z,91.00
2017-12-03T07:01:32.654Z,91.00
2017-12-03T07:04:02.840Z,91.00
2017-12-03T07:06:34.709Z,91.10
2017-12-03T07:09:02.281Z,91.00
2017-12-03T07:11:29.255Z,91.50
2017-12-03T07:13:56.291Z,91.10
2017-12-03T07:16:23.263Z,91.20
2017-12-03T07:18:55.013Z,91.30
2017-12-03T07:21:27.316Z,91.30
2017-12-03T07:23:59.815Z,91.70
2017-12-03T07:26:34.633Z,91.70
2017-12-03T07:29:05.734Z,91.60
2017-12-03T07:31:37.493Z,91.90
2017-12-03T07:34:08.157Z,91.70
2017-12-03T07:36:37.380Z,91.90
2017-12-03T07:39:09.391Z,92.00
2017-12-03T07:41:40.984Z,91.90
2017-12-03T07:44:11.980Z,91.90
2017-12-03T07:46:42.731Z,92.00
2017-12-03T07:49:13.925Z,91.90
2017-12-03T07:51:45.859Z,91.80
2017-12-03T07:54:16.231Z,92.00
2017-12-03T07:56:49.390Z,92.10
2017-12-03T07:59:19.368Z,92.30
2017-12-03T08:01:47.152Z,91.90
2017-12-03T08:04:23.153Z,91.90
2017-12-03T08:06:52.271Z,91.90
2017-12-03T08:09:25.922Z,92.20
2017-12-03T08:12:01.160Z,91.70
2017-12-03T08:14:34.960Z,91.70
2017-12-03T08:17:11.936Z,92.10
2017-12-03T08:19:46.764Z,92.40
2017-12-03T08:22:14.354Z,92.40
2017-12-03T08:24:45.171Z,92.30
2017-12-03T08:27:25.686Z,92.50
2017-12-03T08:29:55.518Z,92.40
2017-12-03T08:32:23.734Z,92.80
2017-12-03T08:34:53.075Z,92.80
2017-12-03T08:37:20.083Z,93.20
2017-12-03T08:39:48.380Z,93.30
2017-12-03T08:42:24.278Z,93.40
2017-12-03T08:44:53.209Z,93.40
2017-12-03T08:47:23.759Z,93.70
2017-12-03T08:49:50.704Z,93.60
2017-12-03T08:52:22.940Z,93.30
2017-12-03T08:54:54.077Z,93.30
2017-12-03T08:57:22.106Z,93.50
2017-12-03T08:59:49.079Z,93.70
2017-12-03T09:02:16.554Z,93.70
2017-12-03T09:04:43.513Z,94.00
2017-12-03T09:07:10.627Z,93.80
2017-12-03T09:09:38.547Z,94.00
2017-12-03T09:12:07.340Z,93.80
2017-12-03T09:14:35.863Z,93.90
2017-12-03T09:17:03.935Z,93.90
2017-12-03T09:19:31.545Z,93.70
2017-12-03T09:21:59.968Z,93.80
2017-12-03T09:24:28.724Z,93.70
2017-12-03T09:26:56.576Z,93.70
2017-12-03T09:29:23.563Z,93.70
2017-12-03T09:31:51.998Z,93.60
2017-12-03T09:34:23.673Z,93.80
2017-12-03T09:36:50.745Z,93.80
2017-12-03T09:39:19.572Z,93.60
2017-12-03T09:41:46.549Z,93.70
2017-12-03T09:44:22.997Z,94.00
2017-12-03T09:46:50.057Z,94.00
2017-12-03T09:49:20.894Z,93.50
2017-12-03T09:51:49.369Z,93.90
2017-12-03T09:54:16.436Z,93.80
2017-12-03T09:56:44.741Z,94.20
2017-12-03T09:59:12.236Z,93.80
2017-12-03T10:01:41.028Z,93.60
2017-12-03T10:04:08.074Z,93.90
2017-12-03T10:06:35.035Z,93.80
2017-12-03T10:09:02.240Z,94.10
2017-12-03T10:11:30.372Z,94.00
2017-12-03T10:13:58.856Z,94.20
2017-12-03T10:16:26.732Z,94.20
2017-12-03T10:18:54.188Z,94.10
2017-12-03T10:21:24.165Z,93.90
2017-12-03T10:23:53.705Z,93.90
2017-12-03T10:26:26.171Z,94.50
2017-12-03T10:28:56.339Z,93.60
2017-12-03T10:31:23.350Z,93.60
2017-12-03T10:33:52.276Z,93.90
2017-12-03T10:36:20.072Z,93.90
2017-12-03T10:38:49.368Z,93.90
2017-12-03T10:41:16.311Z,94.20
2017-12-03T10:43:43.280Z,94.40
2017-12-03T10:46:10.245Z,94.20
2017-12-03T10:48:37.163Z,94.10
2017-12-03T10:51:06.477Z,93.90
2017-12-03T10:53:33.357Z,94.20
2017-12-03T10:56:00.313Z,95.00
2017-12-03T10:58:27.362Z,94.00
2017-12-03T11:00:54.694Z,93.70
2017-12-03T11:03:24.039Z,94.60
2017-12-03T11:05:51.028Z,94.30
2017-12-03T11:08:18.161Z,94.20
2017-12-03T11:10:45.450Z,94.50
2017-12-03T11:13:13.594Z,94.10
2017-12-03T11:15:40.671Z,94.10
2017-12-03T11:18:07.971Z,94.00
2017-12-03T11:20:47.182Z,94.00
2017-12-03T11:23:21.288Z,94.00
2017-12-03T11:25:55.025Z,94.50
2017-12-03T11:28:24.082Z,94.30
2017-12-03T11:30:52.028Z,94.50
2017-12-03T11:33:19.534Z,94.50
2017-12-03T11:35:47.148Z,94.20
2017-12-03T11:38:20.160Z,94.20
2017-12-03T11:40:49.823Z,94.10
2017-12-03T11:46:03.731Z,94.60
2017-12-03T11:48:32.334Z,94.50
2017-12-03T11:51:08.037Z,94.30
2017-12-03T11:53:38.503Z,94.30
2017-12-03T11:56:11.201Z,94.60
2017-12-03T11:58:47.359Z,94.60
2017-12-03T12:01:19.608Z,94.30
2017-12-03T12:03:55.594Z,94.60
2017-12-03T12:06:27.623Z,94.30
2017-12-03T12:09:02.976Z,94.50
2017-12-03T12:11:35.967Z,94.40
2017-12-03T12:14:12.584Z,95.20
2017-12-03T12:19:31.300Z,95.00
2017-12-03T12:22:11.633Z,94.80
2017-12-03T12:24:51.470Z,94.50
2017-12-03T12:30:05.288Z,94.40
2017-12-03T12:35:29.446Z,94.70
2017-12-03T12:38:09.811Z,94.70
2017-12-03T12:40:50.329Z,94.60
2017-12-03T12:43:42.840Z,94.70
2017-12-03T12:46:23.618Z,95.20
2017-12-03T12:48:51.806Z,95.10
2017-12-03T12:51:21.979Z,95.20
2017-12-03T12:53:49.853Z,95.00
2017-12-03T12:56:18.035Z,95.20
2017-12-03T12:58:45.806Z,95.30
2017-12-03T13:01:13.822Z,95.00
2017-12-03T13:03:41.646Z,95.10
2017-12-03T13:06:11.293Z,95.60
2017-12-03T13:08:41.461Z,95.30
2017-12-03T13:11:09.269Z,95.10
2017-12-03T13:13:38.913Z,95.20
2017-12-03T13:16:08.957Z,95.20
2017-12-03T13:18:40.041Z,95.50
2017-12-03T13:21:07.560Z,95.10
2017-12-03T13:23:34.478Z,95.20
2017-12-03T13:26:01.440Z,95.50
2017-12-03T13:28:28.399Z,95.40
2017-12-03T13:30:55.412Z,95.20
2017-12-03T13:33:22.364Z,95.10
2017-12-03T13:35:49.267Z,95.30
2017-12-03T13:38:16.223Z,95.50
2017-12-03T13:40:43.192Z,95.70
2017-12-03T13:43:10.817Z,95.60
2017-12-03T13:45:37.839Z,95.60
2017-12-03T13:48:04.808Z,95.60
2017-12-03T13:50:31.689Z,95.60
2017-12-03T13:52:58.634Z,95.80
2017-12-03T13:55:25.515Z,95.50
2017-12-03T13:57:52.407Z,95.30
2017-12-03T14:00:19.381Z,95.40
2017-12-03T14:02:47.023Z,95.80
2017-12-03T14:05:13.919Z,95.50
2017-12-03T14:07:40.933Z,95.60
2017-12-03T14:10:07.935Z,95.70
2017-12-03T14:12:34.940Z,95.70
2017-12-03T14:15:01.893Z,95.80
2017-12-03T14:17:29.673Z,95.80
2017-12-03T14:20:00.348Z,95.80
2017-12-03T14:22:33.963Z,96.10
2017-12-03T14:25:07.419Z,96.40
2017-12-03T14:27:42.590Z,96.10
2017-12-03T14:30:17.935Z,96.10
2017-12-03T14:32:49.566Z,96.00
2017-12-03T14:35:23.102Z,96.20
2017-12-03T14:38:01.788Z,96.40
2017-12-03T14:40:36.378Z,96.30
2017-12-03T14:43:07.197Z,96.40
2017-12-03T14:45:38.647Z,96.50
2017-12-03T14:48:16.840Z,96.50
2017-12-03T14:50:50.380Z,96.50
2017-12-03T14:53:22.660Z,97.00
2017-12-03T14:55:51.326Z,97.10
2017-12-03T14:58:18.309Z,97.10
2017-12-03T15:00:47.963Z,97.40
2017-12-03T15:03:23.916Z,97.00
2017-12-03T15:05:54.035Z,96.90
2017-12-03T15:22:58.876Z,97.30
2017-12-03T15:31:25.081Z,97.60
2017-12-03T15:34:13.769Z,97.50
2017-12-03T15:39:46.462Z,97.40
2017-12-03T15:42:27.021Z,97.60
2017-12-03T15:44:54.714Z,97.60
2017-12-03T15:47:21.896Z,97.80
2017-12-03T15:49:48.939Z,97.60
2017-12-03T15:52:20.867Z,98.00
2017-12-03T15:54:47.927Z,98.20
2017-12-03T15:57:18.360Z,98.10
2017-12-03T15:59:45.475Z,98.00
2017-12-03T16:02:12.565Z,98.10
2017-12-03T16:04:39.964Z,98.10
2017-12-03T16:07:07.009Z,98.00
2017-12-03T16:09:33.996Z,97.90
2017-12-03T16:12:00.948Z,97.90
2017-12-03T16:14:28.020Z,97.90
2017-12-03T16:17:04.664Z,97.90
2017-12-03T16:19:40.718Z,98.00
2017-12-03T16:22:11.758Z,97.90
2017-12-03T16:24:44.504Z,97.90
2017-12-03T16:27:12.400Z,97.90
2017-12-03T16:29:39.376Z,98.20
2017-12-03T16:32:11.477Z,98.30
2017-12-03T16:34:38.663Z,98.10
2017-12-03T16:37:11.257Z,98.00
2017-12-03T16:39:38.444Z,97.90
2017-12-03T16:42:05.416Z,98.10
2017-12-03T16:44:32.399Z,97.90
2017-12-03T16:47:00.025Z,98.50
2017-12-03T16:49:27.011Z,98.10
2017-12-03T16:51:54.703Z,97.90
2017-12-03T16:54:21.713Z,97.90
2017-12-03T16:56:48.872Z,98.00
2017-12-03T16:59:16.861Z,98.30
2017-12-03T17:01:44.007Z,98.30
2017-12-03T17:04:11.359Z,98.40
2017-12-03T17:06:38.396Z,98.60
2017-12-03T17:09:06.438Z,98.30
2017-12-03T17:11:48.236Z,98.30
2017-12-03T17:14:18.491Z,98.50
2017-12-03T17:16:46.447Z,98.60
2017-12-03T17:19:13.805Z,98.60
2017-12-03T17:21:40.899Z,98.50
2017-12-03T17:24:08.417Z,98.60
2017-12-03T17:26:35.481Z,98.50
2017-12-03T17:29:16.349Z,98.30
2017-12-03T17:31:56.664Z,98.30
2017-12-03T17:34:32.287Z,98.10
2017-12-03T17:37:10.333Z,98.30
2017-12-03T17:39:51.908Z,98.30
2017-12-03T17:42:29.926Z,98.40
2017-12-03T17:45:12.676Z,98.50
2017-12-03T17:47:53.556Z,98.50
2017-12-03T17:50:28.325Z,98.50
2017-12-03T17:52:55.220Z,98.70
2017-12-03T17:55:22.722Z,98.70
2017-12-03T17:57:49.644Z,98.80
2017-12-03T18:00:16.524Z,98.70
2017-12-03T18:02:43.500Z,98.70
2017-12-03T18:05:11.024Z,98.40
2017-12-03T18:07:38.630Z,98.40
2017-12-03T18:10:05.597Z,98.30
2017-12-03T18:12:32.709Z,98.50
2017-12-03T18:14:59.925Z,98.30
2017-12-03T18:17:26.937Z,98.20
2017-12-03T18:19:55.165Z,98.40
2017-12-03T18:22:22.756Z,98.50
2017-12-03T18:24:49.812Z,98.40
2017-12-03T18:27:16.823Z,98.10
2017-12-03T18:29:44.116Z,98.20
2017-12-03T18:32:11.860Z,98.60
2017-12-03T18:34:38.972Z,98.60
2017-12-03T18:37:06.600Z,98.80
2017-12-03T18:39:34.613Z,98.80
2017-12-03T18:42:02.065Z,98.60
2017-12-03T18:44:29.183Z,99.00
2017-12-03T18:46:56.219Z,98.60
2017-12-03T18:49:23.243Z,98.70
2017-12-03T18:51:50.248Z,98.50
2017-12-03T18:54:18.080Z,98.40
2017-12-03T18:56:45.987Z,98.40
2017-12-03T18:59:13.172Z,98.50
2017-12-03T19:01:40.240Z,98.10
2017-12-03T19:04:07.321Z,98.20
2017-12-03T19:06:35.108Z,98.40
2017-12-03T19:09:02.072Z,98.10
2017-12-03T19:11:30.904Z,98.50
2017-12-03T19:13:58.304Z,98.70
2017-12-03T19:16:25.184Z,98.50
2017-12-03T19:18:52.263Z,98.30
2017-12-03T19:21:19.409Z,98.40
2017-12-03T19:23:46.363Z,98.20
2017-12-03T19:26:13.337Z,98.50
2017-12-03T19:28:40.215Z,98.70
2017-12-03T19:31:07.185Z,98.50
2017-12-03T19:33:34.131Z,98.60
2017-12-03T19:36:01.033Z,98.50
2017-12-03T19:38:37.727Z,98.40
2017-12-03T19:41:04.657Z,98.30
2017-12-03T19:43:45.948Z,98.20
2017-12-03T19:46:13.764Z,98.30
2017-12-03T19:48:42.001Z,98.20
2017-12-03T19:51:08.988Z,98.30
2017-12-03T19:53:50.775Z,98.00
2017-12-03T19:56:30.998Z,98.10
2017-12-03T19:58:58.437Z,98.20
2017-12-03T20:01:25.391Z,98.00
2017-12-03T20:03:53.552Z,98.20
2017-12-03T20:06:22.764Z,98.00
2017-12-03T20:08:59.760Z,97.90
2017-12-03T20:11:28.180Z,98.20
2017-12-03T20:14:06.170Z,98.20
2017-12-03T20:16:34.754Z,98.30
2017-12-03T20:21:50.977Z,98.40
2017-12-03T20:24:19.170Z,98.20
2017-12-03T20:26:46.805Z,98.10
2017-12-03T20:29:13.898Z,98.10
2017-12-03T20:31:40.977Z,98.00
2017-12-03T20:34:08.176Z,98.00
2017-12-03T20:36:39.863Z,98.20
2017-12-03T20:39:09.154Z,97.90
2017-12-03T20:41:37.340Z,98.20
2017-12-03T20:44:14.881Z,98.10
2017-12-03T20:46:42.052Z,98.10
2017-12-03T20:49:09.234Z,98.00
2017-12-03T20:51:36.292Z,98.10
2017-12-03T20:54:05.957Z,98.00
2017-12-03T20:56:35.414Z,98.30
2017-12-03T20:59:04.680Z,98.50
2017-12-03T21:01:36.117Z,97.90
2017-12-03T21:04:03.996Z,98.00
2017-12-03T21:06:32.753Z,98.10
2017-12-03T21:09:05.177Z,97.70
2017-12-03T21:11:34.110Z,97.60
2017-12-03T21:14:07.820Z,97.80
2017-12-03T21:16:40.714Z,97.90
2017-12-03T21:19:14.372Z,98.00
2017-12-03T21:21:44.353Z,98.00
2017-12-03T21:24:11.816Z,97.90
2017-12-03T21:26:40.320Z,97.70
2017-12-03T21:29:09.149Z,97.70
2017-12-03T21:31:43.370Z,97.80
2017-12-03T21:34:10.807Z,97.80
2017-12-03T21:36:47.949Z,98.00
2017-12-03T21:39:16.309Z,97.80
2017-12-03T21:41:44.243Z,97.70
2017-12-03T21:44:13.289Z,97.60
2017-12-03T21:46:41.982Z,97.60
2017-12-03T21:49:11.277Z,97.90
2017-12-03T21:51:39.657Z,97.90
2017-12-03T21:54:09.464Z,97.90
2017-12-03T21:56:38.164Z,97.90
2017-12-03T21:59:07.418Z,98.20
2017-12-03T22:01:46.527Z,98.20
2017-12-03T22:04:15.621Z,98.30
2017-12-03T22:06:46.628Z,98.50
2017-12-03T22:09:14.457Z,98.50
2017-12-03T22:11:42.232Z,98.60
2017-12-03T22:14:09.174Z,98.60
2017-12-03T22:16:46.616Z,98.50
2017-12-03T22:19:14.233Z,98.50
2017-12-03T22:21:41.115Z,98.50
2017-12-03T22:24:21.962Z,98.60
2017-12-03T22:26:50.613Z,98.60
2017-12-03T22:29:17.603Z,98.30
2017-12-03T22:31:50.875Z,98.10
2017-12-03T22:34:17.991Z,98.20
2017-12-03T22:36:46.450Z,98.20
2017-12-03T22:39:14.816Z,98.10
2017-12-03T22:41:41.780Z,98.00
2017-12-03T22:44:08.736Z,98.00
2017-12-03T22:46:35.813Z,98.10
2017-12-03T22:49:02.922Z,98.10
2017-12-03T22:51:30.656Z,98.10
2017-12-03T22:53:57.618Z,98.10
2017-12-03T22:56:24.623Z,98.10
2017-12-03T22:58:51.572Z,98.00
2017-12-03T23:01:18.472Z,97.90
2017-12-03T23:03:45.411Z,97.90
2017-12-03T23:06:12.347Z,98.20
2017-12-03T23:08:39.263Z,97.90
2017-12-03T23:11:06.267Z,98.30
2017-12-03T23:13:33.904Z,98.60
2017-12-03T23:16:00.884Z,98.60
2017-12-03T23:18:28.607Z,98.30
2017-12-03T23:20:55.518Z,98.30
2017-12-03T23:23:22.505Z,98.10
2017-12-03T23:25:49.515Z,98.10
2017-12-03T23:28:22.705Z,97.90
2017-12-03T23:30:53.612Z,97.90
2017-12-03T23:33:28.744Z,98.10
2017-12-03T23:36:01.810Z,97.80
2017-12-03T23:38:38.923Z,97.80
2017-12-03T23:41:10.468Z,97.70
2017-12-03T23:43:42.535Z,97.90
2017-12-03T23:46:10.946Z,98.00
2017-12-03T23:48:44.657Z,98.10
2017-12-03T23:51:16.005Z,98.10
2017-12-03T23:53:42.983Z,97.90
2017-12-03T23:56:14.739Z,98.00
2017-12-03T23:58:45.709Z,98.00
